sensor_id;sensor_type;location;lat;lon;timestamp;pressure;altitude;pressure_sealevel;temperature;humidity
23574;BME280;11965;53.640;10.050;2023-03-20T00:00:50;101486.28;;;8.53;100.00
23574;BME280;11965;53.640;10.050;2023-03-20T00:03:18;101482.47;;;8.54;100.00
23574;BME280;11965;53.640;10.050;2023-03-20T00:05:44;101475.91;;;8.47;100.00
23574;BME280;11965;53.640;10.050;2023-03-20T00:08:11;101482.06;;;8.40;100.00
23574;BME280;11965;53.640;10.050;2023-03-20T00:10:41;101483.63;;;8.43;100.00
23574;BME280;11965;53.640;10.050;2023-03-20T00:13:14;101479.19;;;8.50;100.00
23574;BME280;11965;53.640;10.050;2023-03-20T00:15:45;101480.59;;;8.54;100.00
23574;BME280;11965;53.640;10.050;2023-03-20T00:18:16;101486.13;;;8.54;100.00
23574;BME280;11965;53.640;10.050;2023-03-20T00:20:44;101484.22;;;8.55;100.00
23574;BME280;11965;53.640;10.050;2023-03-20T00:23:12;101483.03;;;8.57;100.00
23574;BME280;11965;53.640;10.050;2023-03-20T00:25:41;101479.56;;;8.55;100.00
23574;BME280;11965;53.640;10.050;2023-03-20T00:28:31;101475.06;;;8.54;100.00
23574;BME280;11965;53.640;10.050;2023-03-20T00:31:00;101480.03;;;8.51;100.00
23574;BME280;11965;53.640;10.050;2023-03-20T00:33:29;101480.91;;;8.51;100.00
23574;BME280;11965;53.640;10.050;2023-03-20T00:35:56;101476.16;;;8.70;100.00
23574;BME280;11965;53.640;10.050;2023-03-20T00:38:23;101480.44;;;8.64;100.00
23574;BME280;11965;53.640;10.050;2023-03-20T00:40:50;101472.19;;;8.72;100.00
23574;BME280;11965;53.640;10.050;2023-03-20T00:43:17;101473.97;;;8.81;100.00
23574;BME280;11965;53.640;10.050;2023-03-20T00:45:45;101474.47;;;8.85;100.00
23574;BME280;11965;53.640;10.050;2023-03-20T00:48:13;101468.25;;;8.83;100.00
23574;BME280;11965;53.640;10.050;2023-03-20T00:50:44;101468.75;;;8.78;100.00
23574;BME280;11965;53.640;10.050;2023-03-20T00:53:14;101464.09;;;8.71;100.00
23574;BME280;11965;53.640;10.050;2023-03-20T00:55:44;101471.31;;;8.72;100.00
23574;BME280;11965;53.640;10.050;2023-03-20T00:58:12;101473.22;;;8.71;100.00
23574;BME280;11965;53.640;10.050;2023-03-20T01:00:41;101467.16;;;8.68;100.00
23574;BME280;11965;53.640;10.050;2023-03-20T01:03:16;101464.38;;;8.68;100.00
23574;BME280;11965;53.640;10.050;2023-03-20T01:05:48;101468.75;;;8.78;100.00
23574;BME280;11965;53.640;10.050;2023-03-20T01:08:21;101474.13;;;8.80;100.00
23574;BME280;11965;53.640;10.050;2023-03-20T01:10:52;101471.19;;;8.81;100.00
23574;BME280;11965;53.640;10.050;2023-03-20T01:13:24;101466.34;;;8.83;100.00
23574;BME280;11965;53.640;10.050;2023-03-20T01:15:53;101475.69;;;8.82;100.00
23574;BME280;11965;53.640;10.050;2023-03-20T01:18:23;101473.41;;;8.78;100.00
23574;BME280;11965;53.640;10.050;2023-03-20T01:20:52;101469.63;;;8.79;100.00
23574;BME280;11965;53.640;10.050;2023-03-20T01:23:20;101472.75;;;8.76;100.00
23574;BME280;11965;53.640;10.050;2023-03-20T01:25:52;101477.75;;;8.80;100.00
23574;BME280;11965;53.640;10.050;2023-03-20T01:28:22;101475.19;;;8.87;100.00
23574;BME280;11965;53.640;10.050;2023-03-20T01:30:49;101468.28;;;8.99;100.00
23574;BME280;11965;53.640;10.050;2023-03-20T01:33:19;101463.44;;;8.93;100.00
23574;BME280;11965;53.640;10.050;2023-03-20T01:35:52;101468.25;;;8.83;100.00
23574;BME280;11965;53.640;10.050;2023-03-20T01:38:25;101462.69;;;8.75;100.00
23574;BME280;11965;53.640;10.050;2023-03-20T01:41:02;101467.16;;;8.68;100.00
23574;BME280;11965;53.640;10.050;2023-03-20T01:43:33;101471.56;;;8.87;100.00
23574;BME280;11965;53.640;10.050;2023-03-20T01:46:12;101476.53;;;8.83;100.00
23574;BME280;11965;53.640;10.050;2023-03-20T01:49:03;101479.16;;;8.93;100.00
23574;BME280;11965;53.640;10.050;2023-03-20T01:51:34;101474.84;;;8.90;100.00
23574;BME280;11965;53.640;10.050;2023-03-20T01:54:13;101480.38;;;8.90;100.00
23574;BME280;11965;53.640;10.050;2023-03-20T01:56:57;101480.72;;;8.87;100.00
23574;BME280;11965;53.640;10.050;2023-03-20T01:59:30;101484.47;;;8.78;100.00
23574;BME280;11965;53.640;10.050;2023-03-20T02:01:59;101485.75;;;8.49;100.00
23574;BME280;11965;53.640;10.050;2023-03-20T02:04:30;101483.16;;;8.48;100.00
23574;BME280;11965;53.640;10.050;2023-03-20T02:07:10;101477.44;;;8.41;100.00
23574;BME280;11965;53.640;10.050;2023-03-20T02:09:43;101483.22;;;8.38;100.00
23574;BME280;11965;53.640;10.050;2023-03-20T02:12:16;101481.28;;;8.56;100.00
23574;BME280;11965;53.640;10.050;2023-03-20T02:14:44;101479.22;;;8.32;100.00
23574;BME280;11965;53.640;10.050;2023-03-20T02:17:22;101478.50;;;8.22;100.00
23574;BME280;11965;53.640;10.050;2023-03-20T02:20:08;101486.66;;;8.06;100.00
23574;BME280;11965;53.640;10.050;2023-03-20T02:26:05;101485.91;;;8.22;100.00
23574;BME280;11965;53.640;10.050;2023-03-20T02:29:19;101484.72;;;8.24;100.00
23574;BME280;11965;53.640;10.050;2023-03-20T02:38:22;101482.59;;;7.92;100.00
23574;BME280;11965;53.640;10.050;2023-03-20T02:41:00;101480.81;;;7.83;100.00
23574;BME280;11965;53.640;10.050;2023-03-20T02:43:38;101488.97;;;7.92;100.00
23574;BME280;11965;53.640;10.050;2023-03-20T02:46:17;101481.31;;;8.04;100.00
23574;BME280;11965;53.640;10.050;2023-03-20T02:48:53;101476.59;;;7.96;100.00
23574;BME280;11965;53.640;10.050;2023-03-20T02:51:34;101476.56;;;7.88;100.00
23574;BME280;11965;53.640;10.050;2023-03-20T02:54:12;101474.44;;;7.82;100.00
23574;BME280;11965;53.640;10.050;2023-03-20T02:56:51;101467.22;;;7.89;100.00
23574;BME280;11965;53.640;10.050;2023-03-20T02:59:31;101476.56;;;7.88;100.00
23574;BME280;11965;53.640;10.050;2023-03-20T03:02:07;101471.47;;;8.02;100.00
23574;BME280;11965;53.640;10.050;2023-03-20T03:04:38;101478.28;;;7.89;100.00
23574;BME280;11965;53.640;10.050;2023-03-20T03:07:12;101468.00;;;8.00;100.00
23574;BME280;11965;53.640;10.050;2023-03-20T03:09:47;101475.78;;;7.78;100.00
23574;BME280;11965;53.640;10.050;2023-03-20T03:12:20;101470.13;;;7.80;100.00
23574;BME280;11965;53.640;10.050;2023-03-20T03:14:51;101467.88;;;7.83;100.00
23574;BME280;11965;53.640;10.050;2023-03-20T03:17:24;101466.16;;;7.82;100.00
23574;BME280;11965;53.640;10.050;2023-03-20T03:19:57;101469.47;;;7.86;100.00
23574;BME280;11965;53.640;10.050;2023-03-20T03:22:33;101470.00;;;7.89;100.00
23574;BME280;11965;53.640;10.050;2023-03-20T03:25:05;101457.00;;;7.82;100.00
23574;BME280;11965;53.640;10.050;2023-03-20T03:27:36;101455.13;;;7.82;100.00
23574;BME280;11965;53.640;10.050;2023-03-20T03:30:11;101450.88;;;7.70;100.00
23574;BME280;11965;53.640;10.050;2023-03-20T03:32:46;101447.53;;;7.58;100.00
23574;BME280;11965;53.640;10.050;2023-03-20T03:35:18;101452.78;;;7.69;100.00
23574;BME280;11965;53.640;10.050;2023-03-20T03:37:55;101449.78;;;7.63;100.00
23574;BME280;11965;53.640;10.050;2023-03-20T03:40:32;101445.56;;;7.50;100.00
23574;BME280;11965;53.640;10.050;2023-03-20T03:43:09;101450.03;;;7.69;100.00
23574;BME280;11965;53.640;10.050;2023-03-20T03:45:48;101444.84;;;7.48;100.00
23574;BME280;11965;53.640;10.050;2023-03-20T03:48:19;101439.03;;;7.51;100.00
23574;BME280;11965;53.640;10.050;2023-03-20T03:50:52;101442.50;;;7.53;100.00
23574;BME280;11965;53.640;10.050;2023-03-20T03:53:24;101447.00;;;7.37;100.00
23574;BME280;11965;53.640;10.050;2023-03-20T03:56:00;101445.66;;;7.41;100.00
23574;BME280;11965;53.640;10.050;2023-03-20T03:58:32;101448.59;;;7.39;100.00
23574;BME280;11965;53.640;10.050;2023-03-20T04:01:02;101444.94;;;7.39;100.00
23574;BME280;11965;53.640;10.050;2023-03-20T04:03:35;101462.19;;;7.41;100.00
23574;BME280;11965;53.640;10.050;2023-03-20T04:06:05;101453.22;;;7.39;100.00
23574;BME280;11965;53.640;10.050;2023-03-20T04:08:34;101456.53;;;7.42;100.00
23574;BME280;11965;53.640;10.050;2023-03-20T04:11:02;101462.13;;;7.33;100.00
23574;BME280;11965;53.640;10.050;2023-03-20T04:13:29;101444.78;;;7.40;100.00
23574;BME280;11965;53.640;10.050;2023-03-20T04:15:56;101436.59;;;7.48;100.00
23574;BME280;11965;53.640;10.050;2023-03-20T04:18:25;101442.19;;;7.39;100.00
23574;BME280;11965;53.640;10.050;2023-03-20T04:20:53;101444.16;;;7.46;100.00
23574;BME280;11965;53.640;10.050;2023-03-20T04:23:20;101443.28;;;7.46;100.00
23574;BME280;11965;53.640;10.050;2023-03-20T04:25:48;101446.69;;;7.40;100.00
23574;BME280;11965;53.640;10.050;2023-03-20T04:28:17;101441.56;;;7.45;100.00
23574;BME280;11965;53.640;10.050;2023-03-20T04:31:10;101439.28;;;7.40;100.00
23574;BME280;11965;53.640;10.050;2023-03-20T04:33:58;101448.25;;;7.42;100.00
23574;BME280;11965;53.640;10.050;2023-03-20T04:36:39;101437.31;;;7.50;100.00
23574;BME280;11965;53.640;10.050;2023-03-20T04:39:09;101433.91;;;7.39;100.00
23574;BME280;11965;53.640;10.050;2023-03-20T04:41:36;101433.56;;;7.34;100.00
23574;BME280;11965;53.640;10.050;2023-03-20T04:44:04;101436.38;;;7.24;100.00
23574;BME280;11965;53.640;10.050;2023-03-20T04:46:31;101440.31;;;7.39;100.00
23574;BME280;11965;53.640;10.050;2023-03-20T04:49:00;101437.25;;;7.42;100.00
23574;BME280;11965;53.640;10.050;2023-03-20T04:51:28;101442.19;;;7.39;100.00
23574;BME280;11965;53.640;10.050;2023-03-20T04:53:56;101441.16;;;7.58;100.00
23574;BME280;11965;53.640;10.050;2023-03-20T04:56:26;101423.50;;;7.50;100.00
23574;BME280;11965;53.640;10.050;2023-03-20T04:59:05;101434.81;;;7.39;100.00
23574;BME280;11965;53.640;10.050;2023-03-20T05:01:32;101440.53;;;7.28;100.00
23574;BME280;11965;53.640;10.050;2023-03-20T05:03:59;101426.91;;;7.44;100.00
23574;BME280;11965;53.640;10.050;2023-03-20T05:06:30;101435.97;;;7.37;100.00
23574;BME280;11965;53.640;10.050;2023-03-20T05:08:58;101426.75;;;7.46;100.00
23574;BME280;11965;53.640;10.050;2023-03-20T05:11:27;101437.25;;;7.42;100.00
23574;BME280;11965;53.640;10.050;2023-03-20T05:14:05;101434.94;;;7.38;100.00
23574;BME280;11965;53.640;10.050;2023-03-20T05:17:04;101441.81;;;7.34;100.00
23574;BME280;11965;53.640;10.050;2023-03-20T05:20:04;101444.38;;;7.53;100.00
23574;BME280;11965;53.640;10.050;2023-03-20T05:22:51;101442.34;;;7.55;100.00
23574;BME280;11965;53.640;10.050;2023-03-20T05:25:36;101444.78;;;7.40;100.00
23574;BME280;11965;53.640;10.050;2023-03-20T05:28:17;101441.81;;;7.34;100.00
23574;BME280;11965;53.640;10.050;2023-03-20T05:30:54;101454.25;;;7.20;100.00
23574;BME280;11965;53.640;10.050;2023-03-20T05:33:34;101454.72;;;7.33;100.00
23574;BME280;11965;53.640;10.050;2023-03-20T05:36:27;101450.06;;;7.51;100.00
23574;BME280;11965;53.640;10.050;2023-03-20T05:39:13;101454.94;;;7.58;100.00
23574;BME280;11965;53.640;10.050;2023-03-20T05:41:51;101462.19;;;7.41;100.00
23574;BME280;11965;53.640;10.050;2023-03-20T05:44:18;101455.91;;;7.48;100.00
23574;BME280;11965;53.640;10.050;2023-03-20T05:47:16;101475.06;;;7.32;100.00
23574;BME280;11965;53.640;10.050;2023-03-20T05:50:02;101464.09;;;7.40;100.00
23574;BME280;11965;53.640;10.050;2023-03-20T05:52:53;101472.63;;;7.29;100.00
23574;BME280;11965;53.640;10.050;2023-03-20T05:55:24;101486.09;;;7.32;100.00
23574;BME280;11965;53.640;10.050;2023-03-20T05:58:11;101488.53;;;7.35;100.00
23574;BME280;11965;53.640;10.050;2023-03-20T06:00:58;101478.94;;;7.39;100.00
23574;BME280;11965;53.640;10.050;2023-03-20T06:04:01;101488.63;;;7.25;100.00
23574;BME280;11965;53.640;10.050;2023-03-20T06:06:51;101479.97;;;7.20;100.00
23574;BME280;11965;53.640;10.050;2023-03-20T06:09:18;101480.03;;;7.28;100.00
23574;BME280;11965;53.640;10.050;2023-03-20T06:11:46;101483.00;;;7.35;100.00
23574;BME280;11965;53.640;10.050;2023-03-20T06:14:15;101479.06;;;7.20;100.00
23574;BME280;11965;53.640;10.050;2023-03-20T06:16:47;101483.09;;;7.25;100.00
23574;BME280;11965;53.640;10.050;2023-03-20T06:19:16;101484.91;;;7.17;100.00
23574;BME280;11965;53.640;10.050;2023-03-20T06:21:44;101487.53;;;7.36;100.00
23574;BME280;11965;53.640;10.050;2023-03-20T06:24:15;101480.56;;;7.50;100.00
23574;BME280;11965;53.640;10.050;2023-03-20T06:26:42;101488.28;;;7.46;100.00
23574;BME280;11965;53.640;10.050;2023-03-20T06:29:10;101485.75;;;7.35;100.00
23574;BME280;11965;53.640;10.050;2023-03-20T06:31:38;101493.31;;;7.33;100.00
23574;BME280;11965;53.640;10.050;2023-03-20T06:34:08;101488.66;;;7.51;100.00
23574;BME280;11965;53.640;10.050;2023-03-20T06:36:43;101494.50;;;7.48;100.00
23574;BME280;11965;53.640;10.050;2023-03-20T06:39:15;101487.34;;;7.38;100.00
23574;BME280;11965;53.640;10.050;2023-03-20T06:41:42;101483.34;;;7.50;100.00
23574;BME280;11965;53.640;10.050;2023-03-20T06:44:09;101482.06;;;7.44;100.00
23574;BME280;11965;53.640;10.050;2023-03-20T06:47:07;101483.94;;;7.44;100.00
23574;BME280;11965;53.640;10.050;2023-03-20T06:49:33;101493.25;;;7.43;100.00
23574;BME280;11965;53.640;10.050;2023-03-20T06:52:02;101490.03;;;7.47;100.00
23574;BME280;11965;53.640;10.050;2023-03-20T06:54:31;101495.03;;;7.52;100.00
23574;BME280;11965;53.640;10.050;2023-03-20T06:56:58;101489.59;;;7.60;100.00
23574;BME280;11965;53.640;10.050;2023-03-20T06:59:24;101487.50;;;7.54;100.00
23574;BME280;11965;53.640;10.050;2023-03-20T07:01:55;101493.56;;;7.58;100.00
23574;BME280;11965;53.640;10.050;2023-03-20T07:04:22;101497.88;;;7.78;100.00
23574;BME280;11965;53.640;10.050;2023-03-20T07:06:53;101488.56;;;7.79;100.00
23574;BME280;11965;53.640;10.050;2023-03-20T07:09:22;101491.81;;;7.74;100.00
23574;BME280;11965;53.640;10.050;2023-03-20T07:11:49;101497.53;;;7.81;100.00
23574;BME280;11965;53.640;10.050;2023-03-20T07:14:17;101493.53;;;7.75;100.00
23574;BME280;11965;53.640;10.050;2023-03-20T07:16:52;101495.97;;;7.79;100.00
23574;BME280;11965;53.640;10.050;2023-03-20T07:19:20;101501.25;;;7.90;100.00
23574;BME280;11965;53.640;10.050;2023-03-20T07:21:57;101506.31;;;7.77;100.00
23574;BME280;11965;53.640;10.050;2023-03-20T07:24:28;101498.28;;;7.65;100.00
23574;BME280;11965;53.640;10.050;2023-03-20T07:26:57;101496.75;;;7.71;100.00
23574;BME280;11965;53.640;10.050;2023-03-20T07:29:25;101497.78;;;7.70;100.00
23574;BME280;11965;53.640;10.050;2023-03-20T07:31:52;101509.06;;;7.77;100.00
23574;BME280;11965;53.640;10.050;2023-03-20T07:34:25;101497.16;;;7.76;100.00
23574;BME280;11965;53.640;10.050;2023-03-20T07:36:53;101508.50;;;7.91;100.00
23574;BME280;11965;53.640;10.050;2023-03-20T07:39:22;101506.25;;;7.94;100.00
23574;BME280;11965;53.640;10.050;2023-03-20T07:42:05;101513.63;;;7.86;100.00
23574;BME280;11965;53.640;10.050;2023-03-20T07:44:48;101510.38;;;7.90;100.00
23574;BME280;11965;53.640;10.050;2023-03-20T07:47:14;101510.16;;;7.84;100.00
23574;BME280;11965;53.640;10.050;2023-03-20T07:49:41;101505.25;;;7.95;100.00
23574;BME280;11965;53.640;10.050;2023-03-20T07:52:08;101506.25;;;7.94;100.00
23574;BME280;11965;53.640;10.050;2023-03-20T07:54:35;101501.94;;;8.18;100.00
23574;BME280;11965;53.640;10.050;2023-03-20T07:57:03;101504.00;;;8.16;100.00
23574;BME280;11965;53.640;10.050;2023-03-20T07:59:31;101505.94;;;8.24;100.00
23574;BME280;11965;53.640;10.050;2023-03-20T08:01:58;101509.22;;;8.27;100.00
23574;BME280;11965;53.640;10.050;2023-03-20T08:04:26;101502.28;;;8.15;100.00
23574;BME280;11965;53.640;10.050;2023-03-20T08:06:53;101499.56;;;8.23;100.00
23574;BME280;11965;53.640;10.050;2023-03-20T08:09:20;101508.22;;;8.28;100.00
23574;BME280;11965;53.640;10.050;2023-03-20T08:11:48;101507.53;;;8.52;100.00
23574;BME280;11965;53.640;10.050;2023-03-20T08:14:15;101515.91;;;8.77;100.00
23574;BME280;11965;53.640;10.050;2023-03-20T08:16:43;101509.94;;;8.90;100.00
23574;BME280;11965;53.640;10.050;2023-03-20T08:19:10;101528.09;;;8.92;100.00
23574;BME280;11965;53.640;10.050;2023-03-20T08:21:38;101527.19;;;8.92;100.00
23574;BME280;11965;53.640;10.050;2023-03-20T08:24:05;101530.50;;;8.95;100.00
23574;BME280;11965;53.640;10.050;2023-03-20T08:26:33;101529.44;;;8.88;100.00
23574;BME280;11965;53.640;10.050;2023-03-20T08:29:00;101530.47;;;8.87;100.00
23574;BME280;11965;53.640;10.050;2023-03-20T08:31:27;101526.09;;;8.68;100.00
23574;BME280;11965;53.640;10.050;2023-03-20T08:33:55;101533.81;;;8.65;100.00
23574;BME280;11965;53.640;10.050;2023-03-20T08:36:23;101529.53;;;8.70;100.00
23574;BME280;11965;53.640;10.050;2023-03-20T08:38:50;101527.44;;;8.64;100.00
23574;BME280;11965;53.640;10.050;2023-03-20T08:41:17;101530.97;;;8.82;100.00
23574;BME280;11965;53.640;10.050;2023-03-20T08:43:44;101532.16;;;8.80;100.00
23574;BME280;11965;53.640;10.050;2023-03-20T08:46:12;101532.47;;;8.69;100.00
23574;BME280;11965;53.640;10.050;2023-03-20T08:48:39;101531.34;;;8.88;100.00
23574;BME280;11965;53.640;10.050;2023-03-20T08:51:07;101538.41;;;8.82;100.00
23574;BME280;11965;53.640;10.050;2023-03-20T08:53:34;101527.88;;;8.85;100.00
23574;BME280;11965;53.640;10.050;2023-03-20T08:56:02;101526.03;;;9.11;100.00
23574;BME280;11965;53.640;10.050;2023-03-20T08:58:29;101524.19;;;9.19;100.00
23574;BME280;11965;53.640;10.050;2023-03-20T09:00:56;101524.34;;;9.26;100.00
23574;BME280;11965;53.640;10.050;2023-03-20T09:03:27;101527.94;;;9.10;100.00
23574;BME280;11965;53.640;10.050;2023-03-20T09:05:54;101530.69;;;9.02;100.00
23574;BME280;11965;53.640;10.050;2023-03-20T09:08:22;101533.00;;;9.23;100.00
23574;BME280;11965;53.640;10.050;2023-03-20T09:10:49;101527.97;;;9.26;100.00
23574;BME280;11965;53.640;10.050;2023-03-20T09:13:16;101530.56;;;9.12;100.00
23574;BME280;11965;53.640;10.050;2023-03-20T09:15:43;101525.75;;;9.22;100.00
23574;BME280;11965;53.640;10.050;2023-03-20T09:18:10;101523.53;;;9.42;100.00
23574;BME280;11965;53.640;10.050;2023-03-20T09:20:36;101528.03;;;9.51;100.00
23574;BME280;11965;53.640;10.050;2023-03-20T09:23:03;101522.53;;;9.59;98.68
23574;BME280;11965;53.640;10.050;2023-03-20T09:25:32;101526.81;;;9.54;97.83
23574;BME280;11965;53.640;10.050;2023-03-20T09:27:58;101515.22;;;9.50;99.38
23574;BME280;11965;53.640;10.050;2023-03-20T09:30:26;101521.81;;;9.49;99.42
23574;BME280;11965;53.640;10.050;2023-03-20T09:32:53;101533.88;;;9.40;97.63
23574;BME280;11965;53.640;10.050;2023-03-20T09:35:20;101536.88;;;9.55;99.76
23574;BME280;11965;53.640;10.050;2023-03-20T09:37:47;101529.06;;;9.50;99.18
23574;BME280;11965;53.640;10.050;2023-03-20T09:40:23;101540.09;;;9.34;96.27
23574;BME280;11965;53.640;10.050;2023-03-20T09:43:01;101538.38;;;9.24;97.83
23574;BME280;11965;53.640;10.050;2023-03-20T09:45:43;101540.81;;;9.36;97.63
23574;BME280;11965;53.640;10.050;2023-03-20T09:48:23;101546.38;;;9.52;98.07
23574;BME280;11965;53.640;10.050;2023-03-20T09:50:59;101549.63;;;9.47;96.71
23574;BME280;11965;53.640;10.050;2023-03-20T09:53:33;101549.63;;;9.31;97.25
23574;BME280;11965;53.640;10.050;2023-03-20T09:56:04;101556.00;;;9.32;97.25
23574;BME280;11965;53.640;10.050;2023-03-20T09:58:40;101551.38;;;9.40;95.70
23574;BME280;11965;53.640;10.050;2023-03-20T10:01:13;101548.03;;;9.20;98.47
23574;BME280;11965;53.640;10.050;2023-03-20T10:03:46;101544.44;;;9.44;95.97
23574;BME280;11965;53.640;10.050;2023-03-20T10:06:15;101542.25;;;9.89;94.57
23574;BME280;11965;53.640;10.050;2023-03-20T10:08:44;101550.00;;;10.02;91.94
23574;BME280;11965;53.640;10.050;2023-03-20T10:11:29;101554.88;;;9.91;92.66
23574;BME280;11965;53.640;10.050;2023-03-20T10:14:11;101549.16;;;9.68;93.44
23574;BME280;11965;53.640;10.050;2023-03-20T10:17:03;101551.06;;;9.60;94.58
23574;BME280;11965;53.640;10.050;2023-03-20T10:19:37;101550.72;;;9.63;94.95
23574;BME280;11965;53.640;10.050;2023-03-20T10:22:18;101546.88;;;9.47;98.32
23574;BME280;11965;53.640;10.050;2023-03-20T10:24:56;101539.78;;;9.61;96.80
23574;BME280;11965;53.640;10.050;2023-03-20T10:27:32;101542.91;;;9.66;94.41
23574;BME280;11965;53.640;10.050;2023-03-20T10:30:21;101536.16;;;9.93;93.46
23574;BME280;11965;53.640;10.050;2023-03-20T10:33:02;101532.03;;;9.98;94.41
23574;BME280;11965;53.640;10.050;2023-03-20T10:35:38;101522.69;;;9.90;93.26
23574;BME280;11965;53.640;10.050;2023-03-20T10:38:22;101527.72;;;9.62;92.46
23574;BME280;11965;53.640;10.050;2023-03-20T10:40:54;101533.03;;;9.56;95.34
23574;BME280;11965;53.640;10.050;2023-03-20T10:43:27;101521.09;;;9.31;93.58
23574;BME280;11965;53.640;10.050;2023-03-20T10:46:03;101527.84;;;9.52;93.62
23574;BME280;11965;53.640;10.050;2023-03-20T10:48:34;101527.34;;;9.49;94.24
23574;BME280;11965;53.640;10.050;2023-03-20T10:51:04;101522.84;;;9.56;93.26
23574;BME280;11965;53.640;10.050;2023-03-20T10:53:36;101516.09;;;9.50;93.63
23574;BME280;11965;53.640;10.050;2023-03-20T10:56:12;101514.88;;;9.53;90.98
23574;BME280;11965;53.640;10.050;2023-03-20T10:58:44;101510.56;;;9.75;91.29
23574;BME280;11965;53.640;10.050;2023-03-20T11:01:14;101517.81;;;10.09;88.69
23574;BME280;11965;53.640;10.050;2023-03-20T11:03:41;101515.59;;;9.88;86.66
23574;BME280;11965;53.640;10.050;2023-03-20T11:06:17;101515.06;;;9.76;88.38
23574;BME280;11965;53.640;10.050;2023-03-20T11:08:48;101526.31;;;9.83;86.91
23574;BME280;11965;53.640;10.050;2023-03-20T11:11:22;101518.31;;;10.12;86.96
23574;BME280;11965;53.640;10.050;2023-03-20T11:13:50;101511.44;;;9.92;86.73
23574;BME280;11965;53.640;10.050;2023-03-20T11:16:20;101501.53;;;10.14;85.88
23574;BME280;11965;53.640;10.050;2023-03-20T11:18:50;101512.25;;;10.25;84.13
23574;BME280;11965;53.640;10.050;2023-03-20T11:21:21;101497.72;;;10.07;84.97
23574;BME280;11965;53.640;10.050;2023-03-20T11:23:50;101503.09;;;10.08;86.20
23574;BME280;11965;53.640;10.050;2023-03-20T11:26:19;101508.22;;;10.52;83.11
23574;BME280;11965;53.640;10.050;2023-03-20T11:28:55;101500.59;;;10.54;82.03
23574;BME280;11965;53.640;10.050;2023-03-20T11:31:30;101495.19;;;10.61;80.61
23574;BME280;11965;53.640;10.050;2023-03-20T11:34:14;101495.09;;;10.46;82.94
23574;BME280;11965;53.640;10.050;2023-03-20T11:36:54;101495.13;;;10.30;83.16
23574;BME280;11965;53.640;10.050;2023-03-20T11:39:23;101502.38;;;10.23;83.11
23574;BME280;11965;53.640;10.050;2023-03-20T11:41:54;101497.38;;;10.26;82.16
23574;BME280;11965;53.640;10.050;2023-03-20T11:44:23;101492.69;;;10.27;82.70
23574;BME280;11965;53.640;10.050;2023-03-20T11:46:57;101493.91;;;10.24;82.81
23574;BME280;11965;53.640;10.050;2023-03-20T11:49:26;101494.59;;;10.26;81.68
23574;BME280;11965;53.640;10.050;2023-03-20T11:51:59;101488.91;;;10.03;81.91
23574;BME280;11965;53.640;10.050;2023-03-20T11:54:28;101498.09;;;10.04;80.87
23574;BME280;11965;53.640;10.050;2023-03-20T11:56:57;101492.06;;;9.92;82.74
23574;BME280;11965;53.640;10.050;2023-03-20T11:59:29;101482.19;;;9.81;83.83
23574;BME280;11965;53.640;10.050;2023-03-20T12:02:03;101490.31;;;9.83;82.85
23574;BME280;11965;53.640;10.050;2023-03-20T12:04:31;101484.78;;;9.83;82.78
23574;BME280;11965;53.640;10.050;2023-03-20T12:07:05;101486.34;;;9.77;83.64
23574;BME280;11965;53.640;10.050;2023-03-20T12:09:41;101492.91;;;10.01;82.37
23574;BME280;11965;53.640;10.050;2023-03-20T12:12:18;101486.84;;;10.13;80.79
23574;BME280;11965;53.640;10.050;2023-03-20T12:14:57;101488.16;;;10.26;80.50
23574;BME280;11965;53.640;10.050;2023-03-20T12:17:37;101493.16;;;10.47;79.06
23574;BME280;11965;53.640;10.050;2023-03-20T12:20:18;101488.84;;;10.44;77.90
23574;BME280;11965;53.640;10.050;2023-03-20T12:22:55;101482.28;;;10.21;78.31
23574;BME280;11965;53.640;10.050;2023-03-20T12:25:27;101489.94;;;10.35;78.85
23574;BME280;11965;53.640;10.050;2023-03-20T12:28:04;101484.88;;;10.38;79.19
23574;BME280;11965;53.640;10.050;2023-03-20T12:33:40;101484.84;;;10.47;76.62
23574;BME280;11965;53.640;10.050;2023-03-20T12:36:13;101475.03;;;10.36;77.18
23574;BME280;11965;53.640;10.050;2023-03-20T12:38:41;101479.72;;;10.75;77.92
23574;BME280;11965;53.640;10.050;2023-03-20T12:41:15;101483.06;;;10.62;76.87
23574;BME280;11965;53.640;10.050;2023-03-20T12:46:42;101471.06;;;10.78;78.05
23574;BME280;11965;53.640;10.050;2023-03-20T12:49:27;101478.44;;;10.94;73.16
23574;BME280;11965;53.640;10.050;2023-03-20T12:52:09;101475.13;;;11.44;71.58
23574;BME280;11965;53.640;10.050;2023-03-20T12:57:51;101452.53;;;11.70;71.14
23574;BME280;11965;53.640;10.050;2023-03-20T13:00:29;101464.25;;;11.81;70.51
23574;BME280;11965;53.640;10.050;2023-03-20T13:03:10;101456.38;;;12.07;69.60
23574;BME280;11965;53.640;10.050;2023-03-20T13:05:47;101448.63;;;12.32;66.06
23574;BME280;11965;53.640;10.050;2023-03-20T13:08:33;101451.28;;;12.11;65.34
23574;BME280;11965;53.640;10.050;2023-03-20T13:11:12;101440.47;;;12.16;67.32
23574;BME280;11965;53.640;10.050;2023-03-20T13:13:49;101438.50;;;11.87;67.69
23574;BME280;11965;53.640;10.050;2023-03-20T13:16:29;101441.94;;;11.74;69.45
23574;BME280;11965;53.640;10.050;2023-03-20T13:19:08;101438.63;;;11.56;69.54
23574;BME280;11965;53.640;10.050;2023-03-20T13:21:45;101441.41;;;11.56;69.77
23574;BME280;11965;53.640;10.050;2023-03-20T13:24:32;101434.66;;;11.27;69.47
23574;BME280;11965;53.640;10.050;2023-03-20T13:27:13;101441.25;;;11.03;70.71
23574;BME280;11965;53.640;10.050;2023-03-20T13:29:48;101442.69;;;10.91;70.89